sensor_id;sensor_type;location;lat;lon;timestamp;P1;durP1;ratioP1;P2;durP2;ratioP2
26319;SDS011;14024;52.226;5.200;2022-10-22T00:01:04;11.80;;;5.65;;
26319;SDS011;14024;52.226;5.200;2022-10-22T00:03:30;11.55;;;5.28;;
26319;SDS011;14024;52.226;5.200;2022-10-22T00:05:56;12.65;;;5.55;;
26319;SDS011;14024;52.226;5.200;2022-10-22T00:08:22;12.00;;;4.85;;
26319;SDS011;14024;52.226;5.200;2022-10-22T00:10:48;14.02;;;5.43;;
26319;SDS011;14024;52.226;5.200;2022-10-22T00:13:14;13.38;;;5.25;;
26319;SDS011;14024;52.226;5.200;2022-10-22T00:15:40;13.70;;;5.13;;
26319;SDS011;14024;52.226;5.200;2022-10-22T00:18:06;11.75;;;4.82;;
26319;SDS011;14024;52.226;5.200;2022-10-22T00:20:32;15.27;;;5.63;;
26319;SDS011;14024;52.226;5.200;2022-10-22T00:22:58;12.15;;;5.10;;
26319;SDS011;14024;52.226;5.200;2022-10-22T00:25:24;16.50;;;5.60;;
26319;SDS011;14024;52.226;5.200;2022-10-22T00:27:50;8.75;;;5.28;;
26319;SDS011;14024;52.226;5.200;2022-10-22T00:30:16;11.65;;;4.97;;
26319;SDS011;14024;52.226;5.200;2022-10-22T00:32:42;9.57;;;5.13;;
26319;SDS011;14024;52.226;5.200;2022-10-22T00:35:08;14.15;;;5.00;;
26319;SDS011;14024;52.226;5.200;2022-10-22T00:37:34;9.93;;;4.97;;
26319;SDS011;14024;52.226;5.200;2022-10-22T00:40:00;14.48;;;5.82;;
26319;SDS011;14024;52.226;5.200;2022-10-22T00:42:26;15.07;;;5.00;;
26319;SDS011;14024;52.226;5.200;2022-10-22T00:47:34;9.88;;;4.57;;
26319;SDS011;14024;52.226;5.200;2022-10-22T00:50:01;13.52;;;5.80;;
26319;SDS011;14024;52.226;5.200;2022-10-22T00:52:27;15.48;;;5.30;;
26319;SDS011;14024;52.226;5.200;2022-10-22T00:54:53;12.80;;;5.10;;
26319;SDS011;14024;52.226;5.200;2022-10-22T00:57:20;10.32;;;4.88;;
26319;SDS011;14024;52.226;5.200;2022-10-22T00:59:46;18.75;;;5.65;;
26319;SDS011;14024;52.226;5.200;2022-10-22T01:02:12;11.75;;;5.10;;
26319;SDS011;14024;52.226;5.200;2022-10-22T01:04:39;10.95;;;4.90;;
26319;SDS011;14024;52.226;5.200;2022-10-22T01:07:05;12.43;;;5.53;;
26319;SDS011;14024;52.226;5.200;2022-10-22T01:09:33;16.38;;;5.80;;
26319;SDS011;14024;52.226;5.200;2022-10-22T01:16:57;15.32;;;5.20;;
26319;SDS011;14024;52.226;5.200;2022-10-22T01:19:30;19.60;;;5.30;;
26319;SDS011;14024;52.226;5.200;2022-10-22T01:22:04;18.73;;;5.75;;
26319;SDS011;14024;52.226;5.200;2022-10-22T01:27:06;17.13;;;5.68;;
26319;SDS011;14024;52.226;5.200;2022-10-22T01:29:36;14.85;;;5.55;;
26319;SDS011;14024;52.226;5.200;2022-10-22T01:32:07;12.75;;;5.50;;
26319;SDS011;14024;52.226;5.200;2022-10-22T01:34:34;15.50;;;5.28;;
26319;SDS011;14024;52.226;5.200;2022-10-22T01:37:01;12.57;;;6.10;;
26319;SDS011;14024;52.226;5.200;2022-10-22T01:39:27;16.92;;;5.07;;
26319;SDS011;14024;52.226;5.200;2022-10-22T01:41:55;12.02;;;4.57;;
26319;SDS011;14024;52.226;5.200;2022-10-22T01:44:32;16.55;;;5.28;;
26319;SDS011;14024;52.226;5.200;2022-10-22T01:47:01;15.02;;;5.50;;
26319;SDS011;14024;52.226;5.200;2022-10-22T01:50:34;15.70;;;4.90;;
26319;SDS011;14024;52.226;5.200;2022-10-22T01:52:38;15.05;;;5.72;;
26319;SDS011;14024;52.226;5.200;2022-10-22T01:57:52;12.50;;;4.72;;
26319;SDS011;14024;52.226;5.200;2022-10-22T02:00:22;10.13;;;5.05;;
26319;SDS011;14024;52.226;5.200;2022-10-22T02:05:37;11.27;;;5.28;;
26319;SDS011;14024;52.226;5.200;2022-10-22T02:08:07;11.77;;;4.90;;
26319;SDS011;14024;52.226;5.200;2022-10-22T02:10:35;20.10;;;5.53;;
26319;SDS011;14024;52.226;5.200;2022-10-22T02:13:02;13.63;;;5.15;;
26319;SDS011;14024;52.226;5.200;2022-10-22T02:15:29;11.32;;;4.80;;
26319;SDS011;14024;52.226;5.200;2022-10-22T02:17:57;9.25;;;4.57;;
26319;SDS011;14024;52.226;5.200;2022-10-22T02:20:28;11.93;;;4.75;;
26319;SDS011;14024;52.226;5.200;2022-10-22T02:22:55;13.07;;;4.80;;
26319;SDS011;14024;52.226;5.200;2022-10-22T02:25:22;17.55;;;4.80;;
26319;SDS011;14024;52.226;5.200;2022-10-22T02:30:34;16.70;;;4.70;;
26319;SDS011;14024;52.226;5.200;2022-10-22T02:33:01;17.42;;;5.47;;
26319;SDS011;14024;52.226;5.200;2022-10-22T02:35:29;19.50;;;4.90;;
26319;SDS011;14024;52.226;5.200;2022-10-22T02:37:56;17.77;;;5.35;;
26319;SDS011;14024;52.226;5.200;2022-10-22T02:40:23;11.88;;;4.53;;
26319;SDS011;14024;52.226;5.200;2022-10-22T02:42:49;13.73;;;5.03;;
26319;SDS011;14024;52.226;5.200;2022-10-22T02:45:16;10.55;;;4.28;;
26319;SDS011;14024;52.226;5.200;2022-10-22T02:47:42;17.02;;;4.50;;
26319;SDS011;14024;52.226;5.200;2022-10-22T02:50:08;16.50;;;6.05;;
26319;SDS011;14024;52.226;5.200;2022-10-22T02:52:34;15.25;;;4.63;;
26319;SDS011;14024;52.226;5.200;2022-10-22T02:55:00;17.35;;;4.88;;
26319;SDS011;14024;52.226;5.200;2022-10-22T02:57:26;15.20;;;4.80;;
26319;SDS011;14024;52.226;5.200;2022-10-22T02:59:52;12.88;;;4.93;;
26319;SDS011;14024;52.226;5.200;2022-10-22T03:02:18;14.57;;;4.80;;
26319;SDS011;14024;52.226;5.200;2022-10-22T03:04:44;14.65;;;5.13;;
26319;SDS011;14024;52.226;5.200;2022-10-22T03:07:10;13.63;;;5.45;;
26319;SDS011;14024;52.226;5.200;2022-10-22T03:09:36;13.50;;;4.97;;
26319;SDS011;14024;52.226;5.200;2022-10-22T03:12:02;13.63;;;4.75;;
26319;SDS011;14024;52.226;5.200;2022-10-22T03:14:28;9.93;;;5.25;;
26319;SDS011;14024;52.226;5.200;2022-10-22T03:16:54;16.58;;;5.68;;
26319;SDS011;14024;52.226;5.200;2022-10-22T03:19:20;17.52;;;5.05;;
26319;SDS011;14024;52.226;5.200;2022-10-22T03:21:48;14.80;;;5.18;;
26319;SDS011;14024;52.226;5.200;2022-10-22T03:24:15;15.68;;;5.50;;
26319;SDS011;14024;52.226;5.200;2022-10-22T03:26:42;15.30;;;5.20;;
26319;SDS011;14024;52.226;5.200;2022-10-22T03:29:10;16.92;;;4.78;;
26319;SDS011;14024;52.226;5.200;2022-10-22T03:31:37;16.55;;;5.63;;
26319;SDS011;14024;52.226;5.200;2022-10-22T03:34:03;13.45;;;5.30;;
26319;SDS011;14024;52.226;5.200;2022-10-22T03:36:28;9.52;;;5.03;;
26319;SDS011;14024;52.226;5.200;2022-10-22T03:38:55;19.67;;;5.88;;
26319;SDS011;14024;52.226;5.200;2022-10-22T03:41:21;22.38;;;5.80;;
26319;SDS011;14024;52.226;5.200;2022-10-22T03:43:47;15.13;;;4.95;;
26319;SDS011;14024;52.226;5.200;2022-10-22T03:46:16;14.52;;;5.25;;
26319;SDS011;14024;52.226;5.200;2022-10-22T03:48:42;16.40;;;5.03;;
26319;SDS011;14024;52.226;5.200;2022-10-22T03:51:08;13.40;;;5.72;;
26319;SDS011;14024;52.226;5.200;2022-10-22T03:53:34;15.43;;;5.50;;
26319;SDS011;14024;52.226;5.200;2022-10-22T03:56:00;16.98;;;5.63;;
26319;SDS011;14024;52.226;5.200;2022-10-22T03:58:26;9.85;;;5.22;;
26319;SDS011;14024;52.226;5.200;2022-10-22T04:00:52;12.48;;;5.20;;
26319;SDS011;14024;52.226;5.200;2022-10-22T04:03:18;21.05;;;6.05;;
26319;SDS011;14024;52.226;5.200;2022-10-22T04:05:44;23.42;;;5.88;;
26319;SDS011;14024;52.226;5.200;2022-10-22T04:08:10;18.20;;;5.85;;
26319;SDS011;14024;52.226;5.200;2022-10-22T04:10:36;13.77;;;5.88;;
26319;SDS011;14024;52.226;5.200;2022-10-22T04:13:02;21.63;;;6.35;;
26319;SDS011;14024;52.226;5.200;2022-10-22T04:15:28;18.52;;;5.90;;
26319;SDS011;14024;52.226;5.200;2022-10-22T04:17:54;22.83;;;7.05;;
26319;SDS011;14024;52.226;5.200;2022-10-22T04:20:20;16.63;;;5.85;;
26319;SDS011;14024;52.226;5.200;2022-10-22T04:22:46;21.13;;;7.18;;
26319;SDS011;14024;52.226;5.200;2022-10-22T04:25:12;14.70;;;5.47;;
26319;SDS011;14024;52.226;5.200;2022-10-22T04:27:38;16.33;;;5.82;;
26319;SDS011;14024;52.226;5.200;2022-10-22T04:30:04;19.13;;;5.88;;
26319;SDS011;14024;52.226;5.200;2022-10-22T04:32:30;15.63;;;6.28;;
26319;SDS011;14024;52.226;5.200;2022-10-22T04:34:56;16.30;;;6.53;;
26319;SDS011;14024;52.226;5.200;2022-10-22T04:37:22;18.48;;;7.72;;
26319;SDS011;14024;52.226;5.200;2022-10-22T04:39:48;21.75;;;6.82;;
26319;SDS011;14024;52.226;5.200;2022-10-22T04:42:14;14.30;;;6.25;;
26319;SDS011;14024;52.226;5.200;2022-10-22T04:44:40;16.15;;;6.38;;
26319;SDS011;14024;52.226;5.200;2022-10-22T04:47:06;14.70;;;6.18;;
26319;SDS011;14024;52.226;5.200;2022-10-22T04:49:32;17.35;;;5.97;;
26319;SDS011;14024;52.226;5.200;2022-10-22T04:51:58;11.68;;;6.20;;
26319;SDS011;14024;52.226;5.200;2022-10-22T04:54:24;22.77;;;6.47;;
26319;SDS011;14024;52.226;5.200;2022-10-22T04:56:50;20.88;;;7.28;;
26319;SDS011;14024;52.226;5.200;2022-10-22T04:59:16;15.82;;;6.53;;
26319;SDS011;14024;52.226;5.200;2022-10-22T05:01:42;23.52;;;6.93;;
26319;SDS011;14024;52.226;5.200;2022-10-22T05:04:13;22.10;;;6.60;;
26319;SDS011;14024;52.226;5.200;2022-10-22T05:06:39;17.20;;;5.85;;
26319;SDS011;14024;52.226;5.200;2022-10-22T05:09:06;15.05;;;6.30;;
26319;SDS011;14024;52.226;5.200;2022-10-22T05:11:34;14.60;;;6.85;;
26319;SDS011;14024;52.226;5.200;2022-10-22T05:14:01;19.73;;;6.22;;
26319;SDS011;14024;52.226;5.200;2022-10-22T05:16:28;21.20;;;6.70;;
26319;SDS011;14024;52.226;5.200;2022-10-22T05:18:54;23.00;;;6.70;;
26319;SDS011;14024;52.226;5.200;2022-10-22T05:21:20;15.30;;;5.93;;
26319;SDS011;14024;52.226;5.200;2022-10-22T05:23:47;19.02;;;6.18;;
26319;SDS011;14024;52.226;5.200;2022-10-22T05:26:15;14.45;;;6.55;;
26319;SDS011;14024;52.226;5.200;2022-10-22T05:28:41;12.90;;;6.00;;
26319;SDS011;14024;52.226;5.200;2022-10-22T05:31:08;14.13;;;6.07;;
26319;SDS011;14024;52.226;5.200;2022-10-22T05:33:35;18.85;;;6.35;;
26319;SDS011;14024;52.226;5.200;2022-10-22T05:36:01;25.48;;;6.18;;
26319;SDS011;14024;52.226;5.200;2022-10-22T05:38:27;18.50;;;5.70;;
26319;SDS011;14024;52.226;5.200;2022-10-22T05:41:04;27.13;;;6.13;;
26319;SDS011;14024;52.226;5.200;2022-10-22T05:43:30;15.15;;;5.80;;
26319;SDS011;14024;52.226;5.200;2022-10-22T05:46:00;18.65;;;6.75;;
26319;SDS011;14024;52.226;5.200;2022-10-22T05:48:26;21.52;;;7.30;;
26319;SDS011;14024;52.226;5.200;2022-10-22T05:50:52;14.50;;;6.18;;
26319;SDS011;14024;52.226;5.200;2022-10-22T05:53:18;22.60;;;6.10;;
26319;SDS011;14024;52.226;5.200;2022-10-22T05:55:44;23.83;;;6.63;;
26319;SDS011;14024;52.226;5.200;2022-10-22T05:58:11;17.48;;;5.90;;
26319;SDS011;14024;52.226;5.200;2022-10-22T06:00:37;17.65;;;6.40;;
26319;SDS011;14024;52.226;5.200;2022-10-22T06:03:03;14.63;;;5.20;;
26319;SDS011;14024;52.226;5.200;2022-10-22T06:05:29;21.08;;;6.22;;
26319;SDS011;14024;52.226;5.200;2022-10-22T06:07:55;19.60;;;6.43;;
26319;SDS011;14024;52.226;5.200;2022-10-22T06:10:22;21.40;;;5.82;;
26319;SDS011;14024;52.226;5.200;2022-10-22T06:12:48;15.55;;;5.68;;
26319;SDS011;14024;52.226;5.200;2022-10-22T06:15:14;13.13;;;5.22;;
26319;SDS011;14024;52.226;5.200;2022-10-22T06:17:42;12.32;;;5.28;;
26319;SDS011;14024;52.226;5.200;2022-10-22T06:20:09;19.55;;;5.32;;
26319;SDS011;14024;52.226;5.200;2022-10-22T06:22:35;13.43;;;5.13;;
26319;SDS011;14024;52.226;5.200;2022-10-22T06:25:01;18.23;;;5.70;;
26319;SDS011;14024;52.226;5.200;2022-10-22T06:27:27;15.57;;;5.88;;
26319;SDS011;14024;52.226;5.200;2022-10-22T06:29:53;15.77;;;5.47;;
26319;SDS011;14024;52.226;5.200;2022-10-22T06:32:18;15.40;;;6.35;;
26319;SDS011;14024;52.226;5.200;2022-10-22T06:34:44;21.13;;;6.20;;
26319;SDS011;14024;52.226;5.200;2022-10-22T06:37:12;26.15;;;5.47;;
26319;SDS011;14024;52.226;5.200;2022-10-22T06:39:39;21.73;;;6.00;;
26319;SDS011;14024;52.226;5.200;2022-10-22T06:42:05;15.18;;;5.40;;
26319;SDS011;14024;52.226;5.200;2022-10-22T06:44:31;19.73;;;5.18;;
26319;SDS011;14024;52.226;5.200;2022-10-22T06:46:57;15.70;;;5.88;;
26319;SDS011;14024;52.226;5.200;2022-10-22T06:49:23;14.18;;;5.80;;
26319;SDS011;14024;52.226;5.200;2022-10-22T06:51:50;15.18;;;4.55;;
26319;SDS011;14024;52.226;5.200;2022-10-22T06:54:16;15.10;;;4.97;;
26319;SDS011;14024;52.226;5.200;2022-10-22T06:56:42;15.27;;;5.20;;
26319;SDS011;14024;52.226;5.200;2022-10-22T06:59:08;17.13;;;4.70;;
26319;SDS011;14024;52.226;5.200;2022-10-22T07:01:34;15.15;;;5.22;;
26319;SDS011;14024;52.226;5.200;2022-10-22T07:04:01;20.17;;;4.90;;
26319;SDS011;14024;52.226;5.200;2022-10-22T07:06:27;18.20;;;5.82;;
26319;SDS011;14024;52.226;5.200;2022-10-22T07:08:54;13.60;;;4.47;;
26319;SDS011;14024;52.226;5.200;2022-10-22T07:11:21;15.07;;;4.90;;
26319;SDS011;14024;52.226;5.200;2022-10-22T07:13:47;17.25;;;5.05;;
26319;SDS011;14024;52.226;5.200;2022-10-22T07:16:13;13.43;;;5.00;;
26319;SDS011;14024;52.226;5.200;2022-10-22T07:18:40;14.05;;;4.88;;
26319;SDS011;14024;52.226;5.200;2022-10-22T07:21:06;26.10;;;5.55;;
26319;SDS011;14024;52.226;5.200;2022-10-22T07:23:33;13.80;;;5.40;;
26319;SDS011;14024;52.226;5.200;2022-10-22T07:25:59;21.80;;;5.32;;
26319;SDS011;14024;52.226;5.200;2022-10-22T07:28:29;16.42;;;5.88;;
26319;SDS011;14024;52.226;5.200;2022-10-22T07:30:56;16.27;;;4.55;;
26319;SDS011;14024;52.226;5.200;2022-10-22T07:33:22;20.38;;;4.35;;
26319;SDS011;14024;52.226;5.200;2022-10-22T07:35:48;17.83;;;4.82;;
26319;SDS011;14024;52.226;5.200;2022-10-22T07:38:14;16.20;;;4.55;;
26319;SDS011;14024;52.226;5.200;2022-10-22T07:40:40;15.75;;;4.32;;
26319;SDS011;14024;52.226;5.200;2022-10-22T07:43:06;20.90;;;6.03;;
26319;SDS011;14024;52.226;5.200;2022-10-22T07:45:32;14.88;;;4.90;;
26319;SDS011;14024;52.226;5.200;2022-10-22T07:47:58;12.80;;;4.22;;
26319;SDS011;14024;52.226;5.200;2022-10-22T07:50:24;18.58;;;4.72;;
26319;SDS011;14024;52.226;5.200;2022-10-22T07:52:50;14.45;;;4.25;;
26319;SDS011;14024;52.226;5.200;2022-10-22T07:55:16;16.38;;;4.53;;
26319;SDS011;14024;52.226;5.200;2022-10-22T07:57:42;16.63;;;4.57;;
26319;SDS011;14024;52.226;5.200;2022-10-22T08:00:08;23.33;;;5.18;;
26319;SDS011;14024;52.226;5.200;2022-10-22T08:02:35;18.92;;;4.38;;
26319;SDS011;14024;52.226;5.200;2022-10-22T08:05:01;19.20;;;4.45;;
26319;SDS011;14024;52.226;5.200;2022-10-22T08:07:27;13.20;;;5.78;;
26319;SDS011;14024;52.226;5.200;2022-10-22T08:09:53;16.10;;;4.20;;
26319;SDS011;14024;52.226;5.200;2022-10-22T08:12:19;18.30;;;3.67;;
26319;SDS011;14024;52.226;5.200;2022-10-22T08:14:44;21.42;;;4.80;;
26319;SDS011;14024;52.226;5.200;2022-10-22T08:17:10;12.85;;;3.88;;
26319;SDS011;14024;52.226;5.200;2022-10-22T08:19:36;19.42;;;4.05;;
26319;SDS011;14024;52.226;5.200;2022-10-22T08:22:02;12.23;;;3.63;;
26319;SDS011;14024;52.226;5.200;2022-10-22T08:24:29;14.70;;;4.28;;
26319;SDS011;14024;52.226;5.200;2022-10-22T08:26:55;15.60;;;4.50;;
26319;SDS011;14024;52.226;5.200;2022-10-22T08:29:21;13.98;;;3.90;;
26319;SDS011;14024;52.226;5.200;2022-10-22T08:31:48;15.57;;;3.67;;
26319;SDS011;14024;52.226;5.200;2022-10-22T08:34:14;8.35;;;3.13;;
26319;SDS011;14024;52.226;5.200;2022-10-22T08:36:40;8.40;;;3.53;;
26319;SDS011;14024;52.226;5.200;2022-10-22T08:39:06;19.65;;;4.18;;
26319;SDS011;14024;52.226;5.200;2022-10-22T08:41:34;24.85;;;4.18;;
26319;SDS011;14024;52.226;5.200;2022-10-22T08:44:05;10.82;;;3.75;;
26319;SDS011;14024;52.226;5.200;2022-10-22T08:49:03;19.45;;;4.32;;
26319;SDS011;14024;52.226;5.200;2022-10-22T08:51:32;11.70;;;4.07;;
26319;SDS011;14024;52.226;5.200;2022-10-22T08:56:31;17.48;;;4.80;;
26319;SDS011;14024;52.226;5.200;2022-10-22T08:59:02;12.82;;;4.18;;
26319;SDS011;14024;52.226;5.200;2022-10-22T09:01:34;16.85;;;4.28;;
26319;SDS011;14024;52.226;5.200;2022-10-22T09:06:29;17.23;;;4.53;;
26319;SDS011;14024;52.226;5.200;2022-10-22T09:08:56;15.80;;;4.45;;
26319;SDS011;14024;52.226;5.200;2022-10-22T09:11:30;14.93;;;4.43;;
26319;SDS011;14024;52.226;5.200;2022-10-22T09:13:57;18.48;;;4.50;;
26319;SDS011;14024;52.226;5.200;2022-10-22T09:19:05;13.50;;;4.22;;
26319;SDS011;14024;52.226;5.200;2022-10-22T09:21:37;15.27;;;5.05;;
26319;SDS011;14024;52.226;5.200;2022-10-22T09:24:10;15.98;;;4.10;;
26319;SDS011;14024;52.226;5.200;2022-10-22T09:26:37;16.05;;;4.07;;
26319;SDS011;14024;52.226;5.200;2022-10-22T09:29:04;22.33;;;4.70;;
26319;SDS011;14024;52.226;5.200;2022-10-22T09:31:31;16.30;;;3.88;;
26319;SDS011;14024;52.226;5.200;2022-10-22T09:33:57;12.15;;;3.50;;
26319;SDS011;14024;52.226;5.200;2022-10-22T09:36:29;13.73;;;2.88;;
26319;SDS011;14024;52.226;5.200;2022-10-22T09:38:55;21.52;;;3.50;;
26319;SDS011;14024;52.226;5.200;2022-10-22T09:41:26;17.67;;;3.83;;
26319;SDS011;14024;52.226;5.200;2022-10-22T09:43:53;19.33;;;3.35;;
26319;SDS011;14024;52.226;5.200;2022-10-22T09:46:21;9.80;;;3.30;;
26319;SDS011;14024;52.226;5.200;2022-10-22T09:49:09;15.32;;;3.97;;
26319;SDS011;14024;52.226;5.200;2022-10-22T09:51:48;14.20;;;3.85;;
26319;SDS011;14024;52.226;5.200;2022-10-22T09:54:16;13.30;;;3.90;;
26319;SDS011;14024;52.226;5.200;2022-10-22T09:56:46;17.75;;;4.32;;
26319;SDS011;14024;52.226;5.200;2022-10-22T09:59:13;14.98;;;4.10;;
26319;SDS011;14024;52.226;5.200;2022-10-22T10:01:39;18.92;;;5.90;;
26319;SDS011;14024;52.226;5.200;2022-10-22T10:04:07;16.55;;;4.72;;
26319;SDS011;14024;52.226;5.200;2022-10-22T10:06:34;12.48;;;4.30;;
26319;SDS011;14024;52.226;5.200;2022-10-22T10:09:00;10.80;;;4.13;;
26319;SDS011;14024;52.226;5.200;2022-10-22T10:11:51;15.38;;;4.68;;
26319;SDS011;14024;52.226;5.200;2022-10-22T10:14:28;12.40;;;4.03;;
26319;SDS011;14024;52.226;5.200;2022-10-22T10:17:02;20.17;;;4.72;;
26319;SDS011;14024;52.226;5.200;2022-10-22T10:28:03;16.83;;;5.00;;
26319;SDS011;14024;52.226;5.200;2022-10-22T10:30:30;16.58;;;4.80;;
26319;SDS011;14024;52.226;5.200;2022-10-22T10:35:30;10.65;;;4.22;;
26319;SDS011;14024;52.226;5.200;2022-10-22T10:40:46;14.80;;;4.75;;
26319;SDS011;14024;52.226;5.200;2022-10-22T10:54:13;16.95;;;5.03;;
26319;SDS011;14024;52.226;5.200;2022-10-22T10:56:44;15.68;;;4.40;;
26319;SDS011;14024;52.226;5.200;2022-10-22T11:06:38;13.27;;;4.10;;
26319;SDS011;14024;52.226;5.200;2022-10-22T11:09:06;12.43;;;5.35;;
26319;SDS011;14024;52.226;5.200;2022-10-22T11:11:38;14.07;;;3.85;;
26319;SDS011;14024;52.226;5.200;2022-10-22T11:14:09;19.60;;;3.92;;
26319;SDS011;14024;52.226;5.200;2022-10-22T11:16:41;20.10;;;4.15;;
26319;SDS011;14024;52.226;5.200;2022-10-22T11:19:13;15.10;;;3.50;;
26319;SDS011;14024;52.226;5.200;2022-10-22T11:26:35;13.30;;;2.88;;
26319;SDS011;14024;52.226;5.200;2022-10-22T11:29:02;12.35;;;3.88;;
26319;SDS011;14024;52.226;5.200;2022-10-22T11:31:31;14.45;;;3.70;;
26319;SDS011;14024;52.226;5.200;2022-10-22T11:34:03;13.18;;;3.40;;
26319;SDS011;14024;52.226;5.200;2022-10-22T11:38:57;10.63;;;2.75;;
26319;SDS011;14024;52.226;5.200;2022-10-22T11:41:23;8.93;;;2.47;;
26319;SDS011;14024;52.226;5.200;2022-10-22T11:44:07;17.23;;;2.47;;
26319;SDS011;14024;52.226;5.200;2022-10-22T11:46:38;16.33;;;3.03;;
26319;SDS011;14024;52.226;5.200;2022-10-22T11:49:15;13.00;;;2.90;;
26319;SDS011;14024;52.226;5.200;2022-10-22T11:51:42;17.00;;;3.22;;
26319;SDS011;14024;52.226;5.200;2022-10-22T11:56:57;18.13;;;3.00;;
26319;SDS011;14024;52.226;5.200;2022-10-22T11:59:38;13.88;;;2.58;;
26319;SDS011;14024;52.226;5.200;2022-10-22T12:02:28;12.43;;;2.92;;
26319;SDS011;14024;52.226;5.200;2022-10-22T12:05:11;26.70;;;3.90;;
26319;SDS011;14024;52.226;5.200;2022-10-22T12:07:50;19.02;;;3.40;;
26319;SDS011;14024;52.226;5.200;2022-10-22T12:10:19;18.60;;;3.38;;
26319;SDS011;14024;52.226;5.200;2022-10-22T12:12:51;18.95;;;3.08;;
26319;SDS011;14024;52.226;5.200;2022-10-22T12:15:22;12.55;;;3.00;;
26319;SDS011;14024;52.226;5.200;2022-10-22T12:17:48;14.10;;;2.90;;
26319;SDS011;14024;52.226;5.200;2022-10-22T12:20:14;12.32;;;2.85;;
26319;SDS011;14024;52.226;5.200;2022-10-22T12:22:41;19.25;;;5.00;;
26319;SDS011;14024;52.226;5.200;2022-10-22T12:25:11;16.38;;;3.08;;
26319;SDS011;14024;52.226;5.200;2022-10-22T12:27:40;15.35;;;2.80;;
26319;SDS011;14024;52.226;5.200;2022-10-22T12:30:17;14.57;;;3.05;;
26319;SDS011;14024;52.226;5.200;2022-10-22T12:32:43;15.27;;;2.92;;
26319;SDS011;14024;52.226;5.200;2022-10-22T12:35:19;20.15;;;3.58;;
26319;SDS011;14024;52.226;5.200;2022-10-22T12:38:02;14.75;;;3.05;;
26319;SDS011;14024;52.226;5.200;2022-10-22T12:40:28;16.25;;;2.67;;
26319;SDS011;14024;52.226;5.200;2022-10-22T12:42:59;16.50;;;3.00;;
26319;SDS011;14024;52.226;5.200;2022-10-22T12:45:26;10.68;;;2.55;;
26319;SDS011;14024;52.226;5.200;2022-10-22T12:47:57;15.25;;;3.38;;
26319;SDS011;14024;52.226;5.200;2022-10-22T12:50:38;15.68;;;3.50;;
26319;SDS011;14024;52.226;5.200;2022-10-22T12:53:50;22.27;;;3.55;;
26319;SDS011;14024;52.226;5.200;2022-10-22T12:55:51;15.95;;;2.80;;
26319;SDS011;14024;52.226;5.200;2022-10-22T12:58:19;15.55;;;2.83;;
26319;SDS011;14024;52.226;5.200;2022-10-22T13:00:46;21.27;;;4.90;;
26319;SDS011;14024;52.226;5.200;2022-10-22T13:06:10;12.93;;;2.80;;
26319;SDS011;14024;52.226;5.200;2022-10-22T13:08:36;14.77;;;3.33;;
26319;SDS011;14024;52.226;5.200;2022-10-22T13:11:05;17.58;;;4.40;;
26319;SDS011;14024;52.226;5.200;2022-10-22T13:13:39;14.55;;;2.63;;
26319;SDS011;14024;52.226;5.200;2022-10-22T13:16:23;18.02;;;3.47;;
26319;SDS011;14024;52.226;5.200;2022-10-22T13:18:50;14.07;;;2.80;;
26319;SDS011;14024;52.226;5.200;2022-10-22T13:23:58;9.95;;;2.90;;
26319;SDS011;14024;52.226;5.200;2022-10-22T13:26:35;14.75;;;2.75;;
26319;SDS011;14024;52.226;5.200;2022-10-22T13:29:02;23.27;;;3.03;;
26319;SDS011;14024;52.226;5.200;2022-10-22T13:31:34;14.98;;;2.97;;
26319;SDS011;14024;52.226;5.200;2022-10-22T13:34:03;15.77;;;3.97;;
26319;SDS011;14024;52.226;5.200;2022-10-22T13:36:30;19.05;;;4.00;;
26319;SDS011;14024;52.226;5.200;2022-10-22T13:38:56;20.45;;;3.58;;
26319;SDS011;14024;52.226;5.200;2022-10-22T13:41:23;17.95;;;4.03;;
26319;SDS011;14024;52.226;5.200;2022-10-22T13:43:50;11.20;;;3.42;;
26319;SDS011;14024;52.226;5.200;2022-10-22T13:46:16;19.83;;;3.75;;
26319;SDS011;14024;52.226;5.200;2022-10-22T13:48:43;14.82;;;3.83;;
26319;SDS011;14024;52.226;5.200;2022-10-22T13:51:13;20.08;;;3.85;;
26319;SDS011;14024;52.226;5.200;2022-10-22T13:53:39;12.18;;;3.40;;
26319;SDS011;14024;52.226;5.200;2022-10-22T13:56:05;17.75;;;3.58;;
26319;SDS011;14024;52.226;5.200;2022-10-22T13:58:33;12.80;;;3.72;;
26319;SDS011;14024;52.226;5.200;2022-10-22T14:00:59;15.20;;;4.20;;
26319;SDS011;14024;52.226;5.200;2022-10-22T14:03:30;15.98;;;3.67;;
26319;SDS011;14024;52.226;5.200;2022-10-22T14:05:57;17.92;;;3.75;;
26319;SDS011;14024;52.226;5.200;2022-10-22T14:08:23;13.77;;;3.80;;
26319;SDS011;14024;52.226;5.200;2022-10-22T14:10:50;23.48;;;4.68;;
26319;SDS011;14024;52.226;5.200;2022-10-22T14:13:16;22.85;;;4.40;;
26319;SDS011;14024;52.226;5.200;2022-10-22T14:15:43;14.40;;;4.85;;
26319;SDS011;14024;52.226;5.200;2022-10-22T14:18:20;15.18;;;3.72;;
26319;SDS011;14024;52.226;5.200;2022-10-22T14:20:50;12.40;;;4.10;;
26319;SDS011;14024;52.226;5.200;2022-10-22T14:23:20;17.95;;;4.85;;
26319;SDS011;14024;52.226;5.200;2022-10-22T14:25:46;19.83;;;4.13;;
26319;SDS011;14024;52.226;5.200;2022-10-22T14:28:14;15.55;;;4.35;;
26319;SDS011;14024;52.226;5.200;2022-10-22T14:30:41;24.88;;;5.47;;
26319;SDS011;14024;52.226;5.200;2022-10-22T14:35:42;23.52;;;4.80;;
26319;SDS011;14024;52.226;5.200;2022-10-22T14:38:08;24.90;;;4.93;;
26319;SDS011;14024;52.226;5.200;2022-10-22T14:40:34;17.60;;;3.85;;
26319;SDS011;14024;52.226;5.200;2022-10-22T14:43:03;14.65;;;3.83;;
26319;SDS011;14024;52.226;5.200;2022-10-22T14:45:29;15.93;;;4.35;;
26319;SDS011;14024;52.226;5.200;2022-10-22T14:47:55;9.25;;;2.88;;
26319;SDS011;14024;52.226;5.200;2022-10-22T14:50:21;26.17;;;3.65;;
26319;SDS011;14024;52.226;5.200;2022-10-22T14:52:48;14.73;;;3.15;;
26319;SDS011;14024;52.226;5.200;2022-10-22T14:55:15;17.55;;;3.83;;
26319;SDS011;14024;52.226;5.200;2022-10-22T14:57:41;16.55;;;3.53;;
26319;SDS011;14024;52.226;5.200;2022-10-22T15:00:08;20.23;;;3.95;;
26319;SDS011;14024;52.226;5.200;2022-10-22T15:02:35;14.82;;;3.53;;
26319;SDS011;14024;52.226;5.200;2022-10-22T15:05:00;17.38;;;3.92;;
26319;SDS011;14024;52.226;5.200;2022-10-22T15:07:26;10.05;;;3.15;;
26319;SDS011;14024;52.226;5.200;2022-10-22T15:09:52;18.23;;;3.65;;
26319;SDS011;14024;52.226;5.200;2022-10-22T15:12:19;18.50;;;3.42;;
26319;SDS011;14024;52.226;5.200;2022-10-22T15:14:45;14.18;;;4.18;;
26319;SDS011;14024;52.226;5.200;2022-10-22T15:17:12;18.73;;;4.60;;
26319;SDS011;14024;52.226;5.200;2022-10-22T15:19:38;14.95;;;3.53;;
26319;SDS011;14024;52.226;5.200;2022-10-22T15:22:03;19.08;;;3.35;;
26319;SDS011;14024;52.226;5.200;2022-10-22T15:24:30;14.93;;;3.83;;
26319;SDS011;14024;52.226;5.200;2022-10-22T15:26:56;14.25;;;3.97;;
26319;SDS011;14024;52.226;5.200;2022-10-22T15:29:22;16.75;;;3.40;;
26319;SDS011;14024;52.226;5.200;2022-10-22T15:31:53;19.88;;;3.90;;
26319;SDS011;14024;52.226;5.200;2022-10-22T15:34:28;15.02;;;3.65;;
26319;SDS011;14024;52.226;5.200;2022-10-22T15:36:55;10.68;;;3.40;;
26319;SDS011;14024;52.226;5.200;2022-10-22T15:39:21;18.45;;;4.10;;
26319;SDS011;14024;52.226;5.200;2022-10-22T15:41:48;13.10;;;3.25;;
26319;SDS011;14024;52.226;5.200;2022-10-22T15:44:24;14.40;;;3.78;;
26319;SDS011;14024;52.226;5.200;2022-10-22T15:46:51;13.20;;;4.43;;
26319;SDS011;14024;52.226;5.200;2022-10-22T15:49:18;17.17;;;3.67;;
26319;SDS011;14024;52.226;5.200;2022-10-22T15:51:44;14.45;;;3.53;;
26319;SDS011;14024;52.226;5.200;2022-10-22T15:54:15;14.93;;;3.80;;
26319;SDS011;14024;52.226;5.200;2022-10-22T15:56:41;25.75;;;4.63;;
26319;SDS011;14024;52.226;5.200;2022-10-22T15:59:09;18.27;;;3.75;;